Time;durP1;ratioP1;P1;durP2;ratioP2;P2;SDS_P1;SDS_P2;PMS_P1;PMS_P2;Temp;Humidity;BMP_temperature;BMP_pressure;BME280_temperature;BME280_humidity;BME280_pressure;Samples;Min_cycle;Max_cycle;Signal;HPM_P1;HPM_P2
2023/01/23 00:01:12;;;;;;;22.35;10.95;;;;;;;14.49;59.18;103353.31;5062037;28;20025;-54
2023/01/23 00:03:38;;;;;;;29.25;11.13;;;;;;;14.71;58.63;103356.47;5060357;28;20068;-49
2023/01/23 00:06:06;;;;;;;26.85;12.05;;;;;;;14.56;58.81;103355.38;5061472;28;20033;-53
2023/01/23 00:08:33;;;;;;;22.75;10.68;;;;;;;14.64;58.63;103350.03;5060825;28;20041;-53
2023/01/23 00:10:58;;;;;;;24.23;10.77;;;;;;;14.66;58.60;103352.56;5063312;28;20124;-50
2023/01/23 00:13:24;;;;;;;24.60;11.47;;;;;;;14.61;58.90;103361.94;5060825;28;20037;-51
2023/01/23 00:15:50;;;;;;;20.83;8.93;;;;;;;14.13;59.57;103358.81;5058509;28;20283;-53
2023/01/23 00:18:16;;;;;;;25.17;12.00;;;;;;;14.22;60.09;103366.94;5062184;28;20033;-51
2023/01/23 00:20:42;;;;;;;29.23;12.00;;;;;;;14.13;60.18;103358.81;5058826;28;20096;-53
2023/01/23 00:23:09;;;;;;;23.88;12.15;;;;;;;14.16;60.41;103357.63;5061441;28;20033;-51
2023/01/23 00:25:35;;;;;;;25.60;12.18;;;;;;;14.07;60.77;103370.22;5059779;28;20052;-50
2023/01/23 00:28:02;;;;;;;33.58;12.85;;;;;;;13.96;60.96;103365.06;5059610;28;20033;-49
2023/01/23 00:30:28;;;;;;;27.10;13.80;;;;;;;14.16;61.03;103363.88;5057738;28;20041;-49
2023/01/23 00:32:54;;;;;;;25.40;12.80;;;;;;;14.32;60.30;103373.91;5061629;28;20120;-50
2023/01/23 00:35:19;;;;;;;26.30;12.67;;;;;;;14.19;60.42;103363.56;5061658;28;20045;-51
2023/01/23 00:37:46;;;;;;;;;;;;;;;14.18;60.74;103369.94;5052827;28;20030;-53
2023/01/23 00:40:12;;;;;;;25.80;11.50;;;;;;;14.01;61.20;103370.81;5058469;28;19935;-49
2023/01/23 00:42:37;;;;;;;29.77;11.63;;;;;;;13.84;61.81;103354.56;5057502;28;20048;-51
2023/01/23 00:45:04;;;;;;;23.15;12.32;;;;;;;13.87;61.90;103362.34;5062984;28;20065;-50
2023/01/23 00:47:30;;;;;;;33.60;13.52;;;;;;;13.84;62.11;103362.66;5061426;28;20043;-49
2023/01/23 00:49:57;;;;;;;25.15;11.02;;;;;;;14.05;61.79;103356.91;5063002;28;20045;-53
2023/01/23 00:52:25;;;;;;;28.20;12.32;;;;;;;14.04;61.79;103359.75;5063851;28;20032;-49
2023/01/23 00:54:50;;;;;;;;;;;;;;;14.10;61.52;103363.66;5062506;28;20038;-50
2023/01/23 00:57:16;;;;;;;30.50;11.23;;;;;;;15.09;59.21;103363.38;5065810;28;20384;-54
2023/01/23 00:59:41;;;;;;;26.33;12.53;;;;;;;14.26;60.77;103368.31;5066806;28;20096;-52
2023/01/23 01:02:07;;;;;;;36.83;11.43;;;;;;;14.03;61.33;103363.44;5064530;28;20033;-53
2023/01/23 01:04:32;;;;;;;31.25;12.13;;;;;;;14.02;61.88;103356.38;5065683;28;20028;-52
2023/01/23 01:07:01;;;;;;;28.05;12.57;;;;;;;14.14;61.71;103359.66;5067619;28;20041;-51
2023/01/23 01:09:27;;;;;;;25.83;12.20;;;;;;;14.11;61.79;103358.13;5060873;28;20037;-50
2023/01/23 01:11:53;;;;;;;27.90;12.10;;;;;;;13.95;62.08;103358.00;5068514;28;20042;-50
2023/01/23 01:14:18;;;;;;;27.88;12.43;;;;;;;14.11;61.66;103349.19;5055960;28;20033;-53
2023/01/23 01:16:45;;;;;;;29.35;12.07;;;;;;;14.09;62.01;103346.69;5065293;28;20034;-51
2023/01/23 01:19:12;;;;;;;33.85;11.52;;;;;;;14.17;61.87;103348.56;5067783;28;20040;-53
2023/01/23 01:21:39;;;;;;;29.85;11.52;;;;;;;14.14;61.82;103352.44;5066717;28;20030;-52
2023/01/23 01:24:05;;;;;;;25.70;12.13;;;;;;;14.26;61.67;103342.25;5063747;28;20032;-52
2023/01/23 01:26:31;;;;;;;23.02;11.40;;;;;;;14.24;61.69;103346.94;5063283;28;20041;-50
2023/01/23 01:28:56;;;;;;;29.52;12.07;;;;;;;14.41;61.69;103352.41;5060693;28;20025;-50
2023/01/23 01:31:22;;;;;;;29.27;12.67;;;;;;;14.96;60.31;103359.25;5068141;28;20044;-48
2023/01/23 01:33:49;;;;;;;32.07;12.60;;;;;;;15.02;59.61;103352.38;5054380;28;20109;-53
2023/01/23 01:36:18;;;;;;;30.38;13.02;;;;;;;14.92;59.87;103360.59;5059697;28;20025;-49
2023/01/23 01:38:45;;;;;;;28.95;11.77;;;;;;;14.62;60.13;103362.81;5062911;28;20052;-54
2023/01/23 01:41:11;;;;;;;27.37;11.13;;;;;;;14.87;60.29;103354.88;5066608;28;20037;-50
2023/01/23 01:43:37;;;;;;;28.85;13.88;;;;;;;14.67;60.34;103356.94;5057844;28;20041;-50
2023/01/23 01:46:44;;;;;;;31.15;12.45;;;;;;;14.48;60.78;103365.06;5061734;28;20033;-50
2023/01/23 01:49:29;;;;;;;33.15;12.13;;;;;;;14.53;61.03;103374.53;5061841;28;20049;-48
2023/01/23 01:52:03;;;;;;;28.17;11.35;;;;;;;14.60;60.89;103370.22;5055366;28;20045;-48
2023/01/23 01:54:29;;;;;;;34.50;12.73;;;;;;;14.75;60.43;103374.00;5051179;28;20039;-50
2023/01/23 01:57:00;;;;;;;36.10;12.30;;;;;;;14.91;60.08;103375.09;5060450;28;20029;-50
2023/01/23 01:59:37;;;;;;;27.70;12.50;;;;;;;15.01;59.97;103378.50;5061125;28;20029;-52
2023/01/23 02:02:10;;;;;;;27.65;11.63;;;;;;;15.11;59.41;103378.38;5063064;28;20029;-52
2023/01/23 02:04:41;;;;;;;28.95;13.10;;;;;;;15.13;59.39;103381.75;5061816;28;20060;-54
2023/01/23 02:07:10;;;;;;;26.42;12.50;;;;;;;14.98;59.67;103378.81;5061231;28;20105;-49
2023/01/23 02:09:36;;;;;;;24.77;12.15;;;;;;;15.11;59.59;103377.50;5064544;28;20047;-52
2023/01/23 02:12:03;;;;;;;31.08;13.60;;;;;;;15.22;59.20;103377.19;5062040;28;20084;-50
2023/01/23 02:14:29;;;;;;;31.45;12.95;;;;;;;14.60;60.32;103372.91;5058225;28;20041;-51
2023/01/23 02:16:59;;;;;;;26.90;12.40;;;;;;;14.87;60.14;103371.84;5059222;28;20033;-51
2023/01/23 02:20:04;;;;;;;29.85;12.57;;;;;;;14.93;60.15;103374.94;5061870;28;20040;-50
2023/01/23 02:22:44;;;;;;;27.85;11.88;;;;;;;14.73;60.44;103365.22;5057297;28;20044;-52
2023/01/23 02:25:21;;;;;;;31.52;13.00;;;;;;;14.72;60.33;103370.81;5061366;28;20044;-50
2023/01/23 02:27:47;;;;;;;32.50;13.93;;;;;;;14.59;60.95;103366.66;5060686;28;20063;-52
2023/01/23 02:30:14;;;;;;;27.13;12.77;;;;;;;14.70;60.70;103379.00;5062964;28;20040;-50
2023/01/23 02:32:42;;;;;;;29.55;12.50;;;;;;;14.98;60.22;103381.50;5058760;28;20041;-51
2023/01/23 02:35:14;;;;;;;35.57;12.60;;;;;;;15.03;59.77;103384.56;5056410;28;20057;-53
2023/01/23 02:37:44;;;;;;;26.48;12.23;;;;;;;15.07;59.82;103387.75;5063365;28;20052;-51
2023/01/23 02:40:11;;;;;;;27.10;12.75;;;;;;;14.79;60.26;103384.47;5060089;28;20097;-49
2023/01/23 02:42:39;;;;;;;;;;;;;;;14.89;60.11;103380.66;5059060;28;20553;-50
2023/01/23 02:45:06;;;;;;;27.27;12.02;;;;;;;14.73;60.49;103380.56;5074021;28;19956;-50
2023/01/23 02:47:33;;;;;;;30.95;12.10;;;;;;;14.85;60.29;103391.91;5063255;28;20192;-52
2023/01/23 02:49:59;;;;;;;28.55;11.75;;;;;;;14.84;60.20;103392.91;5063400;28;20135;-52
2023/01/23 02:52:24;;;;;;;25.97;11.73;;;;;;;14.95;60.14;103389.91;5066142;28;20029;-50
2023/01/23 02:54:50;;;;;;;37.47;13.77;;;;;;;14.80;60.21;103391.56;5062832;28;20036;-54
2023/01/23 02:57:16;;;;;;;33.78;14.20;;;;;;;14.85;60.35;103395.44;5063623;28;20029;-52
2023/01/23 03:02:27;;;;;;;27.30;12.30;;;;;;;14.43;61.32;103388.94;5074557;28;19912;-51
2023/01/23 03:04:52;;;;;;;23.50;11.23;;;;;;;14.65;60.99;103389.41;5063791;28;20044;-54
2023/01/23 03:07:18;;;;;;;27.52;12.65;;;;;;;14.76;60.95;103399.97;5065340;28;20040;-54
2023/01/23 03:09:46;;;;;;;28.43;13.43;;;;;;;14.68;60.79;103397.16;5062672;28;20037;-53
2023/01/23 03:12:14;;;;;;;31.20;12.20;;;;;;;14.73;60.89;103402.13;5061865;28;20056;-54
2023/01/23 03:14:40;;;;;;;32.33;13.35;;;;;;;14.70;60.89;103397.03;5059964;28;20041;-52
2023/01/23 03:17:06;;;;;;;27.20;12.88;;;;;;;14.77;60.87;103398.94;5061225;28;20036;-55
2023/01/23 03:19:34;;;;;;;32.38;14.30;;;;;;;14.54;61.57;103397.78;5058241;28;20086;-52
2023/01/23 03:21:59;;;;;;;31.47;14.33;;;;;;;14.53;61.58;103393.38;5058818;28;20053;-50
2023/01/23 03:24:25;;;;;;;32.60;12.83;;;;;;;14.67;61.32;103405.44;5065143;28;20049;-51
2023/01/23 03:26:51;;;;;;;33.67;12.43;;;;;;;14.47;61.71;103405.66;5062080;28;20055;-54
2023/01/23 03:32:14;;;;;;;28.00;12.00;;;;;;;14.36;62.31;103401.38;5065120;28;20108;-52
2023/01/23 03:34:43;;;;;;;37.00;13.77;;;;;;;14.36;62.33;103395.13;5061020;28;20148;-53
2023/01/23 03:37:10;;;;;;;32.53;13.55;;;;;;;14.34;62.61;103398.00;5063143;28;20033;-50
2023/01/23 03:42:25;;;;;;;35.38;14.90;;;;;;;14.39;62.67;103403.75;5065995;28;20022;-51
2023/01/23 03:44:53;;;;;;;35.45;14.25;;;;;;;14.38;62.53;103396.66;5061880;28;20044;-51
2023/01/23 03:47:25;;;;;;;36.08;15.23;;;;;;;14.48;62.51;103407.34;5060613;28;20037;-49
2023/01/23 03:49:50;;;;;;;34.70;14.45;;;;;;;14.51;62.24;103406.16;5056762;28;20037;-50
2023/01/23 03:52:17;;;;;;;29.25;14.02;;;;;;;14.57;62.10;103397.47;5058289;28;20029;-53
2023/01/23 03:54:44;;;;;;;37.50;14.60;;;;;;;14.58;62.37;103394.59;5061182;28;20060;-53
2023/01/23 03:57:10;;;;;;;31.90;14.60;;;;;;;14.34;62.78;103398.81;5056888;28;20358;-50
2023/01/23 03:59:58;;;;;;;34.95;14.10;;;;;;;14.27;63.09;103402.28;5059856;28;20038;-50
2023/01/23 04:02:28;;;;;;;39.25;13.65;;;;;;;14.28;63.20;103403.97;5060009;28;20029;-52
2023/01/23 04:04:54;;;;;;;;;;;;;;;14.16;63.74;103398.00;5061181;28;20052;-55
2023/01/23 04:07:20;;;;;;;38.70;14.33;;;;;;;14.19;64.10;103398.56;5056237;28;19920;-55
2023/01/23 04:09:48;;;;;;;32.85;14.40;;;;;;;14.15;64.16;103399.88;5058954;28;20037;-52
2023/01/23 04:12:13;;;;;;;44.42;16.13;;;;;;;14.09;64.36;103395.13;5053773;28;20503;-50
2023/01/23 04:14:42;;;;;;;38.47;15.63;;;;;;;14.11;64.34;103398.50;5059800;28;20043;-53
2023/01/23 04:17:09;;;;;;;33.50;13.73;;;;;;;14.10;64.56;103395.94;5061039;28;20032;-56
2023/01/23 04:19:36;;;;;;;36.75;14.18;;;;;;;14.05;64.56;103394.59;5063545;28;20025;-51
2023/01/23 04:22:02;;;;;;;42.00;15.73;;;;;;;14.07;64.67;103394.44;5057637;28;20134;-54
2023/01/23 04:24:33;;;;;;;37.03;15.18;;;;;;;14.15;64.62;103397.19;5058322;28;20045;-52
2023/01/23 04:26:59;;;;;;;34.92;16.05;;;;;;;14.41;63.92;103408.94;5060142;28;20720;-53
2023/01/23 04:29:26;;;;;;;33.58;15.13;;;;;;;14.23;64.59;103401.78;5065819;28;20029;-53
2023/01/23 04:31:52;;;;;;;33.85;14.13;;;;;;;14.02;65.18;103411.03;5057389;28;20060;-52
2023/01/23 04:34:17;;;;;;;36.10;14.93;;;;;;;14.30;64.28;103415.44;5063610;28;20049;-50
2023/01/23 04:36:43;;;;;;;36.77;14.73;;;;;;;14.19;64.57;103412.00;5062310;28;20059;-54
2023/01/23 04:39:08;;;;;;;38.03;15.23;;;;;;;14.20;64.58;103413.69;5060750;28;20036;-52
2023/01/23 04:41:36;;;;;;;39.10;15.02;;;;;;;14.14;64.77;103411.63;5062979;28;20526;-53
2023/01/23 04:44:22;;;;;;;38.63;15.13;;;;;;;14.13;65.04;103404.56;5062068;28;20067;-49
2023/01/23 04:47:03;;;;;;;36.65;14.88;;;;;;;14.04;65.54;103413.56;5059199;28;20181;-50
2023/01/23 04:49:28;;;;;;;32.38;15.02;;;;;;;14.00;65.96;103420.25;5058862;28;20026;-53
2023/01/23 04:51:54;;;;;;;37.77;14.60;;;;;;;14.28;65.06;103415.59;5062518;28;20032;-50
2023/01/23 04:54:23;;;;;;;35.88;15.38;;;;;;;14.42;64.52;103430.34;5061175;28;20056;-49
2023/01/23 04:56:49;;;;;;;39.80;16.47;;;;;;;14.42;64.50;103424.94;5060553;28;20029;-51
2023/01/23 04:59:16;;;;;;;33.85;15.23;;;;;;;14.52;64.25;103429.38;5060871;28;20063;-51
2023/01/23 05:01:43;;;;;;;33.42;14.50;;;;;;;14.49;64.28;103427.88;5062072;28;20025;-49
2023/01/23 05:04:10;;;;;;;37.17;15.38;;;;;;;14.47;64.43;103419.09;5056145;28;20025;-51
2023/01/23 05:06:36;;;;;;;39.92;14.60;;;;;;;14.49;64.06;103426.00;5059883;28;20040;-51
2023/01/23 05:09:04;;;;;;;34.53;15.65;;;;;;;14.47;64.46;103436.09;5061945;28;20040;-52
2023/01/23 05:11:37;;;;;;;36.08;15.70;;;;;;;14.19;65.21;103430.03;5068508;28;20033;-49
2023/01/23 05:14:02;;;;;;;41.00;15.57;;;;;;;14.38;64.66;103437.03;5062902;28;20041;-50
2023/01/23 05:16:29;;;;;;;50.10;16.83;;;;;;;14.51;64.26;103430.38;5066298;28;20270;-50
2023/01/23 05:19:16;;;;;;;40.45;16.27;;;;;;;14.60;63.92;103440.22;5061823;28;20046;-49
2023/01/23 05:21:42;;;;;;;33.72;13.07;;;;;;;14.55;64.22;103434.47;5061280;28;20029;-48
2023/01/23 05:24:13;;;;;;;41.70;15.00;;;;;;;14.60;64.10;103430.28;5063448;28;20036;-53
2023/01/23 05:26:39;;;;;;;32.55;14.55;;;;;;;14.63;63.91;103435.34;5065736;28;20026;-54
2023/01/23 05:29:05;;;;;;;44.17;17.30;;;;;;;14.59;64.03;103441.22;5063729;28;20093;-49
2023/01/23 05:31:34;;;;;;;37.58;14.85;;;;;;;15.01;62.93;103442.31;5063767;28;20044;-51
2023/01/23 05:34:19;;;;;;;38.85;15.80;;;;;;;14.96;62.78;103442.78;5066735;28;20050;-50
2023/01/23 05:36:45;;;;;;;43.53;16.15;;;;;;;14.97;62.59;103444.47;5059634;28;20048;-51
2023/01/23 05:39:11;;;;;;;41.70;15.27;;;;;;;14.92;62.93;103444.13;5063371;28;20041;-49
2023/01/23 05:41:37;;;;;;;40.25;15.63;;;;;;;15.00;62.69;103446.88;5063718;28;20033;-52
2023/01/23 05:44:19;;;;;;;39.78;16.05;;;;;;;14.83;63.09;103445.94;5062640;28;20033;-50
2023/01/23 05:46:50;;;;;;;39.97;15.82;;;;;;;14.94;62.73;103443.97;5061423;28;20030;-48
2023/01/23 05:49:16;;;;;;;35.03;14.73;;;;;;;14.94;62.83;103442.13;5063632;28;20036;-53
2023/01/23 05:51:42;;;;;;;37.07;15.53;;;;;;;14.94;62.69;103447.50;5060496;28;20034;-51
2023/01/23 05:54:09;;;;;;;40.00;15.40;;;;;;;14.93;62.80;103453.91;5063958;28;20033;-54
2023/01/23 05:56:36;;;;;;;35.67;15.57;;;;;;;14.90;62.88;103459.59;5062966;28;20033;-50
2023/01/23 05:59:21;;;;;;;38.85;15.65;;;;;;;14.83;63.13;103461.25;5063746;28;20060;-50
2023/01/23 06:01:57;;;;;;;35.85;15.82;;;;;;;14.92;63.11;103454.91;5061222;28;20040;-53
2023/01/23 06:04:42;;;;;;;46.30;17.05;;;;;;;14.76;63.21;103456.53;5065264;28;20055;-50
2023/01/23 06:07:20;;;;;;;32.67;15.00;;;;;;;14.63;63.97;103456.06;5062032;28;20071;-50
2023/01/23 06:09:50;;;;;;;42.13;16.80;;;;;;;14.67;63.89;103457.44;5057993;28;20059;-55
2023/01/23 06:12:16;;;;;;;37.38;15.77;;;;;;;14.73;63.90;103450.59;5062698;28;20060;-50
2023/01/23 06:14:42;;;;;;;44.05;19.17;;;;;;;14.60;63.98;103441.06;5065187;28;20056;-50
2023/01/23 06:17:11;;;;;;;43.33;16.23;;;;;;;14.64;64.13;103452.34;5067366;28;20132;-50
2023/01/23 06:19:37;;;;;;;41.22;16.48;;;;;;;14.81;63.66;103444.41;5062050;28;20040;-46
2023/01/23 06:22:03;;;;;;;43.22;18.33;;;;;;;14.65;64.11;103445.97;5056206;28;20025;-50
2023/01/23 06:24:36;;;;;;;38.67;16.60;;;;;;;14.73;63.76;103440.66;5059802;28;20064;-52
2023/01/23 06:27:06;;;;;;;41.10;17.10;;;;;;;14.65;64.18;103451.34;5056062;28;20033;-52
2023/01/23 06:29:35;;;;;;;36.33;16.30;;;;;;;14.70;64.04;103446.31;5061922;28;20037;-53
2023/01/23 06:32:00;;;;;;;36.50;15.52;;;;;;;14.67;64.15;103451.22;5064613;28;20041;-52
2023/01/23 06:34:27;;;;;;;35.60;17.73;;;;;;;14.42;64.98;103448.34;5059603;28;20079;-49
2023/01/23 06:37:00;;;;;;;36.17;16.33;;;;;;;14.47;64.86;103452.25;5061215;28;20037;-48
2023/01/23 06:39:26;;;;;;;39.92;16.67;;;;;;;15.23;63.21;103457.09;5059180;28;20044;-51
2023/01/23 06:41:53;;;;;;;32.47;15.32;;;;;;;14.82;63.75;103460.41;5059278;28;20029;-50
2023/01/23 06:44:22;;;;;;;41.08;16.60;;;;;;;14.69;64.30;103460.81;5062512;28;20030;-54
2023/01/23 06:46:48;;;;;;;38.80;15.70;;;;;;;14.63;64.31;103467.66;5059806;28;20037;-49
2023/01/23 06:49:14;;;;;;;37.67;16.65;;;;;;;14.63;64.24;103470.34;5061900;28;20068;-53
2023/01/23 06:51:39;;;;;;;45.23;17.17;;;;;;;14.37;65.02;103466.81;5060101;28;20034;-54
2023/01/23 06:54:08;;;;;;;33.78;15.73;;;;;;;14.25;66.13;103471.59;5059728;28;20025;-52
2023/01/23 06:56:34;;;;;;;37.58;15.55;;;;;;;14.36;65.71;103474.06;5057408;28;20059;-52
2023/01/23 06:59:03;;;;;;;34.58;16.35;;;;;;;14.20;66.20;103470.22;5059937;28;20028;-53
2023/01/23 07:01:31;;;;;;;36.33;15.50;;;;;;;14.01;66.95;103481.13;5057791;28;20032;-52
2023/01/23 07:04:16;;;;;;;35.58;15.55;;;;;;;14.39;66.21;103486.34;5061007;28;20067;-53
2023/01/23 07:06:43;;;;;;;36.58;15.85;;;;;;;13.91;67.73;103491.97;5060596;28;20033;-52
2023/01/23 07:09:11;;;;;;;34.03;14.98;;;;;;;14.46;66.18;103482.88;5062095;28;20029;-47
2023/01/23 07:11:37;;;;;;;41.80;16.63;;;;;;;14.40;66.48;103496.09;5064438;28;20097;-48
2023/01/23 07:14:04;;;;;;;38.92;15.85;;;;;;;14.49;66.03;103496.00;5057252;28;20037;-51
2023/01/23 07:16:31;;;;;;;35.03;16.05;;;;;;;14.44;65.84;103495.63;5059666;28;20147;-50
2023/01/23 07:19:01;;;;;;;;;;;;;;;14.53;65.45;103491.16;5073049;28;20108;-51
2023/01/23 07:21:31;;;;;;;37.75;15.13;;;;;;;14.67;65.08;103499.69;5060568;28;19917;-52
2023/01/23 07:23:56;;;;;;;;;;;;;;;14.56;65.10;103498.09;5060042;28;20057;-52
2023/01/23 07:26:22;;;;;;;35.53;15.77;;;;;;;14.40;65.95;103509.56;5062806;28;19913;-52
2023/01/23 07:28:47;;;;;;;39.30;18.07;;;;;;;14.69;65.26;103503.06;5058226;28;20029;-51
2023/01/23 07:31:13;;;;;;;41.50;16.87;;;;;;;14.66;65.05;103501.53;5059892;28;20040;-53
2023/01/23 07:33:38;;;;;;;38.30;16.17;;;;;;;14.42;65.80;103500.34;5059547;28;20049;-53
2023/01/23 07:36:07;;;;;;;33.83;16.13;;;;;;;14.64;65.20;103503.53;5064072;28;20148;-47
2023/01/23 07:38:32;;;;;;;41.45;15.52;;;;;;;14.67;65.43;103499.69;5056456;28;20033;-54
2023/01/23 07:40:58;;;;;;;38.13;18.20;;;;;;;14.70;64.86;103500.19;5060779;28;20048;-50
2023/01/23 07:43:24;;;;;;;43.30;16.92;;;;;;;14.49;65.61;103514.84;5057136;28;20040;-50
2023/01/23 07:45:50;;;;;;;36.97;17.13;;;;;;;14.19;66.48;103508.91;5059621;28;20032;-49
2023/01/23 07:48:15;;;;;;;41.75;17.13;;;;;;;14.29;66.29;103507.94;5059542;28;20115;-52
2023/01/23 07:50:41;;;;;;;32.87;16.57;;;;;;;14.27;66.74;103515.34;5060123;28;20042;-52
2023/01/23 07:53:07;;;;;;;42.13;17.23;;;;;;;14.54;66.11;103513.56;5059653;28;20300;-49
2023/01/23 07:55:33;;;;;;;35.92;17.27;;;;;;;14.29;66.47;103513.34;5060637;28;20036;-50
2023/01/23 07:57:59;;;;;;;43.97;17.55;;;;;;;14.49;66.18;103514.84;5058873;28;20060;-52
2023/01/23 08:00:24;;;;;;;37.80;16.60;;;;;;;14.07;67.54;103512.84;5057732;28;20044;-52
2023/01/23 08:02:50;;;;;;;40.47;16.63;;;;;;;14.08;67.76;103516.34;5065473;28;20033;-51
2023/01/23 08:05:16;;;;;;;50.80;18.23;;;;;;;13.84;68.59;103521.34;5057670;28;20294;-51
2023/01/23 08:07:41;;;;;;;39.33;17.07;;;;;;;13.87;68.42;103520.16;5058672;28;20033;-54
2023/01/23 08:10:08;;;;;;;37.05;16.10;;;;;;;14.36;67.17;103525.19;5067315;28;20037;-51
2023/01/23 08:12:33;;;;;;;34.30;16.35;;;;;;;14.05;67.71;103528.25;5059094;28;20037;-50
2023/01/23 08:14:59;;;;;;;40.03;16.52;;;;;;;13.95;68.35;103536.38;5061533;28;20100;-47
2023/01/23 08:17:25;;;;;;;40.90;18.70;;;;;;;13.92;68.81;103539.38;5063766;28;20040;-50
2023/01/23 08:19:50;;;;;;;37.92;17.02;;;;;;;14.41;67.48;103540.88;5055297;28;20041;-49
2023/01/23 08:22:15;;;;;;;42.03;18.77;;;;;;;14.54;66.64;103544.03;5059187;28;20056;-52
2023/01/23 08:24:41;;;;;;;35.37;16.97;;;;;;;14.44;67.12;103541.41;5056254;28;20033;-51
2023/01/23 08:27:06;;;;;;;49.10;17.30;;;;;;;14.09;68.32;103543.13;5064640;28;20033;-50
2023/01/23 08:29:32;;;;;;;37.05;17.80;;;;;;;14.16;68.32;103541.50;5063587;28;20029;-50
2023/01/23 08:31:58;;;;;;;38.97;16.87;;;;;;;14.08;68.66;103549.50;5060539;28;20041;-49
2023/01/23 08:34:24;;;;;;;46.80;17.90;;;;;;;14.25;68.82;103533.50;5059437;28;20057;-49
2023/01/23 08:36:50;;;;;;;42.47;18.92;;;;;;;14.13;68.66;103541.81;5062054;28;20037;-50
2023/01/23 08:39:17;;;;;;;36.07;16.30;;;;;;;14.41;67.99;103548.94;5057351;28;20056;-50
2023/01/23 08:41:43;;;;;;;37.45;16.20;;;;;;;14.55;67.66;103544.88;5058595;28;20032;-53
2023/01/23 08:44:09;;;;;;;34.80;16.63;;;;;;;14.49;67.51;103551.72;5061637;28;20037;-52
2023/01/23 08:46:34;;;;;;;32.57;16.20;;;;;;;15.04;66.71;103553.34;5060198;28;20044;-51
2023/01/23 08:49:00;;;;;;;31.42;15.05;;;;;;;14.62;66.89;103557.53;5060815;28;20034;-50
2023/01/23 08:51:26;;;;;;;36.30;16.73;;;;;;;14.99;65.66;103565.59;5066243;28;20037;-52
2023/01/23 08:53:52;;;;;;;41.55;17.33;;;;;;;14.91;66.04;103572.63;5063221;28;20334;-53
2023/01/23 08:56:20;;;;;;;32.78;15.25;;;;;;;14.84;66.01;103565.31;5064354;28;20036;-53
2023/01/23 08:58:46;;;;;;;31.65;15.57;;;;;;;14.90;65.87;103552.06;5063211;28;20695;-51
2023/01/23 09:01:15;;;;;;;33.30;15.85;;;;;;;15.05;66.01;103560.41;5058169;28;20067;-49
2023/01/23 09:03:40;;;;;;;34.30;15.70;;;;;;;15.22;65.49;103562.38;5058002;28;20059;-53
2023/01/23 09:06:06;;;;;;;34.00;16.60;;;;;;;15.35;64.78;103568.19;5062221;28;20029;-52
2023/01/23 09:08:32;;;;;;;38.70;15.73;;;;;;;15.09;65.71;103557.41;5059317;28;20041;-50
2023/01/23 09:11:02;;;;;;;38.25;16.55;;;;;;;15.20;65.61;103565.19;5058768;28;20040;-54
2023/01/23 09:13:28;;;;;;;32.97;15.10;;;;;;;15.31;65.47;103567.63;5060338;28;20028;-50
2023/01/23 09:15:54;;;;;;;29.53;14.93;;;;;;;15.17;65.36;103566.38;5065403;28;20064;-48
2023/01/23 09:18:21;;;;;;;31.73;15.93;;;;;;;15.20;65.62;103565.19;5064135;28;20044;-50
2023/01/23 09:20:47;;;;;;;29.77;16.13;;;;;;;15.27;65.53;103555.50;5060346;28;20062;-50
2023/01/23 09:23:13;;;;;;;29.63;14.68;;;;;;;15.59;64.84;103572.00;5059481;28;20030;-47
2023/01/23 09:25:39;;;;;;;27.92;15.00;;;;;;;15.65;64.16;103576.72;5065865;28;20048;-49
2023/01/23 09:28:05;;;;;;;31.70;14.20;;;;;;;15.52;64.49;103569.09;5058472;28;20045;-52
2023/01/23 09:30:30;;;;;;;34.63;14.68;;;;;;;15.49;64.38;103572.94;5062572;28;20025;-53
2023/01/23 09:32:57;;;;;;;30.03;14.60;;;;;;;16.21;63.44;103578.94;5064583;28;20034;-50
2023/01/23 09:35:22;;;;;;;29.10;13.80;;;;;;;16.31;62.60;103584.19;5064976;28;20321;-51
2023/01/23 09:38:00;;;;;;;33.80;15.17;;;;;;;16.42;62.07;103580.31;5065970;28;20048;-47
2023/01/23 09:40:30;;;;;;;29.65;14.57;;;;;;;16.15;62.37;103580.47;5062787;28;20089;-49
2023/01/23 09:43:01;;;;;;;29.00;13.52;;;;;;;16.53;62.17;103588.09;5058212;28;20057;-52
2023/01/23 09:45:29;;;;;;;40.80;13.82;;;;;;;16.45;61.75;103585.38;5059877;28;20029;-55
2023/01/23 09:48:18;;;;;;;31.70;13.95;;;;;;;16.70;60.88;103578.13;5060201;28;20045;-54
2023/01/23 09:50:55;;;;;;;25.30;13.35;;;;;;;16.52;61.59;103589.09;5065188;28;20049;-53
2023/01/23 09:53:25;;;;;;;30.70;14.82;;;;;;;16.33;61.51;103588.41;5059921;28;20068;-50
2023/01/23 09:55:58;;;;;;;29.80;12.00;;;;;;;16.10;62.40;103588.19;5060910;28;20033;-50
2023/01/23 09:58:33;;;;;;;26.83;12.57;;;;;;;16.68;60.85;103582.84;5063073;28;20092;-50
2023/01/23 10:00:59;;;;;;;26.25;13.35;;;;;;;17.04;60.30;103579.78;5064058;28;20048;-49
2023/01/23 10:03:28;;;;;;;28.50;13.55;;;;;;;17.00;60.16;103577.63;5057362;28;20049;-54
2023/01/23 10:06:18;;;;;;;27.35;12.30;;;;;;;17.13;59.44;103582.50;5063885;28;20701;-53
2023/01/23 10:09:07;;;;;;;23.60;13.38;;;;;;;16.42;61.27;103591.09;5061650;28;20037;-51
2023/01/23 10:11:51;;;;;;;26.27;13.13;;;;;;;16.53;61.31;103596.19;5063087;28;20065;-48
2023/01/23 10:14:37;;;;;;;27.20;12.93;;;;;;;16.75;60.45;103591.97;5064951;28;20040;-52
2023/01/23 10:17:28;;;;;;;27.95;12.75;;;;;;;16.87;60.39;103588.94;5063872;28;20030;-55
2023/01/23 10:20:13;;;;;;;27.08;12.65;;;;;;;17.24;59.61;103595.63;5060778;28;20109;-49
2023/01/23 10:23:02;;;;;;;24.67;12.30;;;;;;;16.41;61.38;103603.78;5063129;28;20060;-51
2023/01/23 10:25:34;;;;;;;24.65;11.68;;;;;;;16.20;62.25;103598.84;5055303;28;20041;-49
2023/01/23 10:28:31;;;;;;;22.67;11.80;;;;;;;16.43;61.19;103601.75;5064781;28;20036;-53
2023/01/23 10:31:02;;;;;;;27.50;13.02;;;;;;;16.56;60.95;103603.09;5063509;28;20050;-51
2023/01/23 10:34:04;;;;;;;28.35;12.63;;;;;;;16.43;61.21;103598.19;5062361;28;20049;-53
2023/01/23 10:36:37;;;;;;;25.73;12.23;;;;;;;16.41;61.76;103590.28;5062836;28;20038;-53
2023/01/23 10:39:11;;;;;;;22.15;11.60;;;;;;;16.13;62.38;103593.25;5066186;28;20041;-54
2023/01/23 10:41:38;;;;;;;38.33;14.10;;;;;;;16.37;61.87;103586.19;5062936;28;20032;-52
2023/01/23 10:44:12;;;;;;;26.73;12.55;;;;;;;16.57;61.47;103585.88;5061360;28;20038;-52
2023/01/23 10:46:46;;;;;;;36.20;13.13;;;;;;;16.10;62.39;103588.19;5058806;28;20033;-54
2023/01/23 10:49:26;;;;;;;21.52;11.43;;;;;;;16.46;61.48;103587.06;5059039;28;20164;-49
2023/01/23 10:51:52;;;;;;;21.85;11.00;;;;;;;16.19;61.17;103586.34;5058935;28;20033;-48
2023/01/23 10:54:20;;;;;;;29.33;12.90;;;;;;;16.47;61.19;103576.09;5063487;28;20048;-50
2023/01/23 10:57:08;;;;;;;22.33;12.07;;;;;;;16.43;61.01;103582.84;5060762;28;20045;-52
2023/01/23 10:59:35;;;;;;;24.90;11.75;;;;;;;16.26;61.12;103578.44;5055323;28;20033;-52
2023/01/23 11:02:14;;;;;;;31.35;12.52;;;;;;;16.71;60.60;103577.09;5060596;28;20037;-52
2023/01/23 11:04:42;;;;;;;21.88;10.88;;;;;;;16.72;59.91;103586.03;5065293;28;20033;-53
2023/01/23 11:07:12;;;;;;;24.25;11.90;;;;;;;16.44;60.83;103586.38;5062308;28;20064;-50
2023/01/23 11:09:56;;;;;;;21.15;11.38;;;;;;;16.67;60.28;103591.13;5060731;28;20060;-50
2023/01/23 11:12:27;;;;;;;25.10;11.20;;;;;;;16.86;59.39;103590.78;5055510;28;20053;-53
2023/01/23 11:15:32;;;;;;;23.40;10.50;;;;;;;16.85;59.41;103589.09;5055579;28;20033;-54
2023/01/23 11:18:00;;;;;;;23.60;10.68;;;;;;;16.95;59.30;103586.22;5054517;28;20040;-51
2023/01/23 11:20:37;;;;;;;21.38;11.73;;;;;;;17.01;58.53;103584.72;5065208;28;20063;-51
2023/01/23 11:23:12;;;;;;;22.83;12.02;;;;;;;17.17;58.42;103595.47;5053471;28;20033;-51
2023/01/23 11:25:39;;;;;;;22.58;10.98;;;;;;;16.98;58.57;103590.44;5054964;28;20040;-51
2023/01/23 11:28:25;;;;;;;21.75;11.18;;;;;;;16.86;58.43;103595.34;5058615;28;20059;-51
2023/01/23 11:31:05;;;;;;;22.85;10.75;;;;;;;16.75;58.67;103602.78;5047910;28;20037;-51